createdAt,value
2018-06-16T00:00:28.217Z,1016.56
2018-06-16T00:01:37.078Z,1016.59
2018-06-16T00:02:45.942Z,1016.59
2018-06-16T00:03:55.081Z,1016.58
2018-06-16T00:05:04.264Z,1016.58
2018-06-16T00:06:13.124Z,1016.6
2018-06-16T00:07:21.984Z,1016.58
2018-06-16T00:08:30.846Z,1016.57
2018-06-16T00:09:39.708Z,1016.58
2018-06-16T00:10:48.922Z,1016.56
2018-06-16T00:11:57.781Z,1016.56
2018-06-16T00:13:06.927Z,1016.58
2018-06-16T00:14:15.787Z,1016.55
2018-06-16T00:15:24.649Z,1016.58
2018-06-16T00:16:33.888Z,1016.6
2018-06-16T00:17:43.024Z,1016.55
2018-06-16T00:18:51.885Z,1016.56
2018-06-16T00:20:01.024Z,1016.55
2018-06-16T00:21:09.884Z,1016.55
2018-06-16T00:22:18.797Z,1016.54
2018-06-16T00:23:27.657Z,1016.5
2018-06-16T00:24:36.517Z,1016.51
2018-06-16T00:25:45.377Z,1016.48
2018-06-16T00:26:54.236Z,1016.45
2018-06-16T00:28:03.248Z,1016.47
2018-06-16T00:29:12.109Z,1016.46
2018-06-16T00:30:20.969Z,1016.53
2018-06-16T00:31:30.117Z,1016.51
2018-06-16T00:32:38.979Z,1016.45
2018-06-16T00:33:47.891Z,1016.5
2018-06-16T00:34:57.031Z,1016.48
2018-06-16T00:36:05.897Z,1016.5
2018-06-16T00:37:14.758Z,1016.54
2018-06-16T00:38:23.618Z,1016.54
2018-06-16T00:39:33.028Z,1016.48
2018-06-16T00:40:41.889Z,1016.49
2018-06-16T00:41:50.750Z,1016.45
2018-06-16T00:42:59.613Z,1016.46
2018-06-16T00:44:08.473Z,1016.41
2018-06-16T00:45:17.486Z,1016.43
2018-06-16T00:46:26.348Z,1016.4
2018-06-16T00:47:35.207Z,1016.43
2018-06-16T00:48:44.069Z,1016.37
2018-06-16T00:49:52.931Z,1016.37
2018-06-16T00:51:02.145Z,1016.39
2018-06-16T00:52:11.284Z,1016.36
2018-06-16T00:53:20.144Z,1016.36
2018-06-16T00:54:29.004Z,1016.34
2018-06-16T00:55:37.868Z,1016.34
2018-06-16T00:56:46.780Z,1016.35
2018-06-16T00:57:55.642Z,1016.32
2018-06-16T00:59:04.501Z,1016.29
2018-06-16T01:00:13.370Z,1016.3
2018-06-16T01:01:22.539Z,1016.33
2018-06-16T01:02:31.788Z,1016.33
2018-06-16T01:03:40.649Z,1016.33
2018-06-16T01:04:49.787Z,1016.37
2018-06-16T01:05:58.653Z,1016.29
2018-06-16T01:07:07.788Z,1016.36
2018-06-16T01:08:16.804Z,1016.27
2018-06-16T01:09:25.663Z,1016.28
2018-06-16T01:10:34.527Z,1016.31
2018-06-16T01:11:43.389Z,1016.27
2018-06-16T01:12:52.246Z,1016.25
2018-06-16T01:14:01.108Z,1016.29
2018-06-16T01:15:09.970Z,1016.26
2018-06-16T01:16:19.207Z,1016.2
2018-06-16T01:17:28.300Z,1016.19
2018-06-16T01:18:37.731Z,1016.18
2018-06-16T01:19:47.024Z,1016.21
2018-06-16T01:20:56.439Z,1016.16
2018-06-16T01:22:05.296Z,1016.21
2018-06-16T01:23:14.712Z,1016.16
2018-06-16T01:24:23.570Z,1016.2
2018-06-16T01:25:32.434Z,1016.16
2018-06-16T01:26:41.299Z,1016.19
2018-06-16T01:27:50.161Z,1016.17
2018-06-16T01:28:59.020Z,1016.16
2018-06-16T01:30:07.883Z,1016.12
2018-06-16T01:31:16.745Z,1016.12
2018-06-16T01:32:25.607Z,1016.13
2018-06-16T01:33:34.466Z,1016.07
2018-06-16T01:34:43.327Z,1016.13
2018-06-16T01:35:52.467Z,1016.11
2018-06-16T01:37:01.481Z,1016.07
2018-06-16T01:38:10.338Z,1016.06
2018-06-16T01:39:19.200Z,1016.04
2018-06-16T01:40:28.061Z,1016.03
2018-06-16T01:41:36.921Z,1016.06
2018-06-16T01:42:45.980Z,1016.02
2018-06-16T01:43:54.841Z,1016
2018-06-16T01:45:03.703Z,1016.01
2018-06-16T01:46:12.838Z,1016.02
2018-06-16T01:47:21.976Z,1016.01
2018-06-16T01:48:31.177Z,1015.99
2018-06-16T01:49:40.035Z,1016.03
2018-06-16T01:50:49.172Z,1016.01
2018-06-16T01:51:58.877Z,1016.01
2018-06-16T01:53:07.737Z,1016.06
2018-06-16T01:54:16.696Z,1016.03
2018-06-16T01:55:25.559Z,1016.05
2018-06-16T01:56:34.696Z,1016.03
2018-06-16T01:57:43.840Z,1016.05
2018-06-16T01:58:52.704Z,1016.03
2018-06-16T02:00:01.666Z,1016.02
2018-06-16T02:01:10.801Z,1016.01
2018-06-16T02:02:19.664Z,1016
2018-06-16T02:03:28.523Z,1016.02
2018-06-16T02:04:37.386Z,1015.95
2018-06-16T02:05:46.597Z,1016
2018-06-16T02:06:55.457Z,1015.99
2018-06-16T02:08:04.319Z,1015.91
2018-06-16T02:09:13.178Z,1015.94
2018-06-16T02:10:22.039Z,1015.92
2018-06-16T02:11:30.948Z,1015.96
2018-06-16T02:12:39.808Z,1015.92
2018-06-16T02:13:48.943Z,1015.97
2018-06-16T02:14:57.803Z,1015.92
2018-06-16T02:16:06.666Z,1015.93
2018-06-16T02:17:15.952Z,1015.93
2018-06-16T02:18:24.817Z,1015.9
2018-06-16T02:19:33.683Z,1015.87
2018-06-16T02:20:42.537Z,1015.96
2018-06-16T02:21:51.397Z,1015.94
2018-06-16T02:23:00.418Z,1015.94
2018-06-16T02:24:09.279Z,1015.9
2018-06-16T02:25:18.136Z,1015.94
2018-06-16T02:26:27.276Z,1015.94
2018-06-16T02:27:36.137Z,1015.89
2018-06-16T02:28:45.053Z,1015.88
2018-06-16T02:29:54.191Z,1015.86
2018-06-16T02:31:03.330Z,1015.85
2018-06-16T02:32:12.469Z,1015.85
2018-06-16T02:33:21.608Z,1015.81
2018-06-16T02:34:31.472Z,1015.8
2018-06-16T02:35:40.333Z,1015.79
2018-06-16T02:36:49.755Z,1015.78
2018-06-16T02:37:59.170Z,1015.74
2018-06-16T02:39:08.137Z,1015.82
2018-06-16T02:40:16.997Z,1015.79
2018-06-16T02:41:25.861Z,1015.81
2018-06-16T02:42:35.001Z,1015.85
2018-06-16T02:43:44.420Z,1015.82
2018-06-16T02:44:53.566Z,1015.81
2018-06-16T02:46:02.895Z,1015.82
2018-06-16T02:47:12.030Z,1015.83
2018-06-16T02:48:21.177Z,1015.81
2018-06-16T02:49:30.595Z,1015.8
2018-06-16T02:50:39.736Z,1015.79
2018-06-16T02:51:48.766Z,1015.76
2018-06-16T02:52:57.623Z,1015.79
2018-06-16T02:54:07.611Z,1015.74
2018-06-16T02:55:17.030Z,1015.76
2018-06-16T02:56:26.452Z,1015.8
2018-06-16T02:57:35.313Z,1015.76
2018-06-16T02:58:44.174Z,1015.75
2018-06-16T02:59:53.312Z,1015.78
2018-06-16T03:01:02.469Z,1015.78
2018-06-16T03:02:11.610Z,1015.75
2018-06-16T03:03:21.114Z,1015.76
2018-06-16T03:04:29.885Z,1015.77
2018-06-16T03:05:39.023Z,1015.79
2018-06-16T03:06:48.159Z,1015.79
2018-06-16T03:07:57.294Z,1015.76
2018-06-16T03:09:06.529Z,1015.79
2018-06-16T03:10:15.389Z,1015.74
2018-06-16T03:11:24.256Z,1015.74
2018-06-16T03:12:33.406Z,1015.72
2018-06-16T03:13:42.556Z,1015.71
2018-06-16T03:14:51.420Z,1015.76
2018-06-16T03:16:00.613Z,1015.77
2018-06-16T03:17:09.757Z,1015.73
2018-06-16T03:18:18.897Z,1015.74
2018-06-16T03:19:27.756Z,1015.77
2018-06-16T03:20:36.716Z,1015.75
2018-06-16T03:21:45.578Z,1015.75
2018-06-16T03:22:54.440Z,1015.74
2018-06-16T03:24:03.302Z,1015.73
2018-06-16T03:25:12.164Z,1015.71
2018-06-16T03:26:21.376Z,1015.73
2018-06-16T03:27:30.514Z,1015.77
2018-06-16T03:28:39.376Z,1015.72
2018-06-16T03:29:48.238Z,1015.72
2018-06-16T03:30:57.652Z,1015.72
2018-06-16T03:32:07.342Z,1015.7
2018-06-16T03:33:16.206Z,1015.72
2018-06-16T03:34:25.341Z,1015.74
2018-06-16T03:35:34.202Z,1015.73
2018-06-16T03:36:43.061Z,1015.73
2018-06-16T03:37:51.927Z,1015.67
2018-06-16T03:39:00.787Z,1015.7
2018-06-16T03:40:09.647Z,1015.71
2018-06-16T03:41:18.509Z,1015.71
2018-06-16T03:42:27.368Z,1015.67
2018-06-16T03:43:36.656Z,1015.71
2018-06-16T03:44:45.517Z,1015.66
2018-06-16T03:45:54.664Z,1015.68
2018-06-16T03:47:04.094Z,1015.67
2018-06-16T03:48:12.958Z,1015.68
2018-06-16T03:49:21.968Z,1015.67
2018-06-16T03:50:30.828Z,1015.63
2018-06-16T03:51:39.969Z,1015.62
2018-06-16T03:52:49.112Z,1015.61
2018-06-16T03:53:57.978Z,1015.57
2018-06-16T03:55:06.985Z,1015.56
2018-06-16T03:56:16.132Z,1015.55
2018-06-16T03:57:24.992Z,1015.49
2018-06-16T03:58:33.857Z,1015.49
2018-06-16T03:59:42.717Z,1015.46
2018-06-16T04:00:52.208Z,1015.48
2018-06-16T04:02:01.068Z,1015.52
2018-06-16T04:03:09.931Z,1015.47
2018-06-16T04:04:18.791Z,1015.49
2018-06-16T04:05:27.936Z,1015.47
2018-06-16T04:06:36.896Z,1015.51
2018-06-16T04:07:46.038Z,1015.47
2018-06-16T04:08:54.898Z,1015.49
2018-06-16T04:10:03.758Z,1015.47
2018-06-16T04:11:12.619Z,1015.52
2018-06-16T04:12:21.477Z,1015.51
2018-06-16T04:13:30.336Z,1015.49
2018-06-16T04:14:39.475Z,1015.46
2018-06-16T04:15:48.338Z,1015.45
2018-06-16T04:16:57.482Z,1015.42
2018-06-16T04:18:06.667Z,1015.41
2018-06-16T04:19:16.081Z,1015.38
2018-06-16T04:20:24.981Z,1015.4
2018-06-16T04:21:34.087Z,1015.43
2018-06-16T04:22:42.949Z,1015.44
2018-06-16T04:23:51.966Z,1015.47
2018-06-16T04:25:01.126Z,1015.46
2018-06-16T04:26:10.262Z,1015.41
2018-06-16T04:27:19.122Z,1015.43
2018-06-16T04:28:27.983Z,1015.46
2018-06-16T04:29:37.473Z,1015.44
2018-06-16T04:30:46.332Z,1015.48
2018-06-16T04:31:55.212Z,1015.47
2018-06-16T04:33:04.054Z,1015.48
2018-06-16T04:34:12.914Z,1015.44
2018-06-16T04:35:21.775Z,1015.44
2018-06-16T04:36:30.918Z,1015.4
2018-06-16T04:37:40.055Z,1015.44
2018-06-16T04:38:48.916Z,1015.43
2018-06-16T04:39:57.778Z,1015.44
2018-06-16T04:41:07.623Z,1015.4
2018-06-16T04:42:16.483Z,1015.41
2018-06-16T04:43:25.344Z,1015.42
2018-06-16T04:44:34.202Z,1015.41
2018-06-16T04:45:43.196Z,1015.38
2018-06-16T04:46:53.182Z,1015.4
2018-06-16T04:48:02.037Z,1015.4
2018-06-16T04:49:10.901Z,1015.35
2018-06-16T04:50:19.762Z,1015.42
2018-06-16T04:51:28.623Z,1015.41
2018-06-16T04:52:37.863Z,1015.38
2018-06-16T04:53:47.000Z,1015.4
2018-06-16T04:54:55.862Z,1015.42
2018-06-16T04:56:04.729Z,1015.4
2018-06-16T04:57:13.600Z,1015.41
2018-06-16T04:58:22.451Z,1015.39
2018-06-16T04:59:31.594Z,1015.38
2018-06-16T05:00:40.453Z,1015.42
2018-06-16T05:01:49.916Z,1015.4
2018-06-16T05:02:59.341Z,1015.37
2018-06-16T05:04:08.640Z,1015.37
2018-06-16T05:05:17.504Z,1015.39
2018-06-16T05:06:26.366Z,1015.35
2018-06-16T05:07:35.232Z,1015.41
2018-06-16T05:08:44.095Z,1015.4
2018-06-16T05:09:53.334Z,1015.41
2018-06-16T05:11:02.747Z,1015.41
2018-06-16T05:12:11.607Z,1015.36
2018-06-16T05:13:20.470Z,1015.42
2018-06-16T05:14:29.608Z,1015.37
2018-06-16T05:15:38.468Z,1015.39
2018-06-16T05:16:47.610Z,1015.41
2018-06-16T05:17:56.779Z,1015.36
2018-06-16T05:19:05.920Z,1015.41
2018-06-16T05:20:14.781Z,1015.32
2018-06-16T05:21:23.796Z,1015.36
2018-06-16T05:22:32.655Z,1015.39
2018-06-16T05:23:41.795Z,1015.38
2018-06-16T05:24:50.659Z,1015.39
2018-06-16T05:25:59.797Z,1015.37
2018-06-16T05:27:08.757Z,1015.41
2018-06-16T05:28:17.909Z,1015.36
2018-06-16T05:29:26.775Z,1015.38
2018-06-16T05:30:35.631Z,1015.4
2018-06-16T05:31:44.494Z,1015.41
2018-06-16T05:32:53.355Z,1015.39
2018-06-16T05:34:02.233Z,1015.4
2018-06-16T05:35:11.096Z,1015.39
2018-06-16T05:36:20.236Z,1015.43
2018-06-16T05:37:29.096Z,1015.4
2018-06-16T05:38:38.108Z,1015.41
2018-06-16T05:39:46.968Z,1015.38
2018-06-16T05:40:55.826Z,1015.38
2018-06-16T05:42:04.972Z,1015.44
2018-06-16T05:43:13.837Z,1015.5
2018-06-16T05:44:22.698Z,1015.52
2018-06-16T05:45:31.561Z,1015.51
2018-06-16T05:46:40.430Z,1015.52
2018-06-16T05:47:49.288Z,1015.5
2018-06-16T05:48:58.154Z,1015.48
2018-06-16T05:50:07.165Z,1015.48
2018-06-16T05:51:16.304Z,1015.47
2018-06-16T05:52:25.374Z,1015.42
2018-06-16T05:53:34.236Z,1015.44
2018-06-16T05:54:43.098Z,1015.43
2018-06-16T05:55:51.960Z,1015.4
2018-06-16T05:57:00.824Z,1015.42
2018-06-16T05:58:09.689Z,1015.42
2018-06-16T05:59:18.550Z,1015.43
2018-06-16T06:00:27.420Z,1015.4
2018-06-16T06:01:36.583Z,1015.42
2018-06-16T06:02:45.559Z,1015.4
2018-06-16T06:03:54.422Z,1015.45
2018-06-16T06:05:03.284Z,1015.46
2018-06-16T06:06:12.418Z,1015.42
2018-06-16T06:07:21.284Z,1015.46
2018-06-16T06:08:30.420Z,1015.45
2018-06-16T06:09:39.283Z,1015.45
2018-06-16T06:10:48.146Z,1015.43
2018-06-16T06:11:57.005Z,1015.45
2018-06-16T06:13:05.868Z,1015.44
2018-06-16T06:14:14.732Z,1015.43
2018-06-16T06:15:23.594Z,1015.45
2018-06-16T06:16:32.456Z,1015.42
2018-06-16T06:17:41.317Z,1015.44
2018-06-16T06:18:50.462Z,1015.47
2018-06-16T06:19:59.323Z,1015.45
2018-06-16T06:21:08.286Z,1015.36
2018-06-16T06:22:17.150Z,1015.4
2018-06-16T06:23:26.291Z,1015.4
2018-06-16T06:24:35.154Z,1015.38
2018-06-16T06:25:44.018Z,1015.38
2018-06-16T06:26:53.233Z,1015.33
2018-06-16T06:28:02.095Z,1015.38
2018-06-16T06:29:10.957Z,1015.36
2018-06-16T06:30:19.820Z,1015.33
2018-06-16T06:31:28.686Z,1015.32
2018-06-16T06:32:37.550Z,1015.29
2018-06-16T06:33:46.418Z,1015.3
2018-06-16T06:34:55.282Z,1015.25
2018-06-16T06:36:04.145Z,1015.29
2018-06-16T06:37:13.030Z,1015.28
2018-06-16T06:38:22.327Z,1015.32
2018-06-16T06:39:31.189Z,1015.34
2018-06-16T06:40:40.051Z,1015.31
2018-06-16T06:41:49.193Z,1015.28
2018-06-16T06:42:58.056Z,1015.28
2018-06-16T06:44:07.278Z,1015.29
2018-06-16T06:45:16.137Z,1015.3
2018-06-16T06:46:25.000Z,1015.27
2018-06-16T06:47:34.151Z,1015.26
2018-06-16T06:48:43.018Z,1015.24
2018-06-16T06:49:52.080Z,1015.25
2018-06-16T06:51:01.221Z,1015.22
2018-06-16T06:52:10.084Z,1015.21
2018-06-16T06:53:18.949Z,1015.22
2018-06-16T06:54:27.812Z,1015.22
2018-06-16T06:55:36.677Z,1015.24
2018-06-16T06:56:45.827Z,1015.23
2018-06-16T06:57:55.018Z,1015.28
2018-06-16T06:59:04.614Z,1015.29
2018-06-16T07:00:13.766Z,1015.25
2018-06-16T07:01:22.680Z,1015.24
2018-06-16T07:02:31.549Z,1015.26
2018-06-16T07:03:40.407Z,1015.31
2018-06-16T07:04:49.269Z,1015.31
2018-06-16T07:05:58.133Z,1015.35
2018-06-16T07:07:07.346Z,1015.31
2018-06-16T07:08:16.213Z,1015.34
2018-06-16T07:09:25.121Z,1015.31
2018-06-16T07:10:33.951Z,1015.35
2018-06-16T07:11:43.103Z,1015.38
2018-06-16T07:12:51.967Z,1015.36
2018-06-16T07:14:01.107Z,1015.42
2018-06-16T07:15:09.970Z,1015.43
2018-06-16T07:16:18.836Z,1015.4
2018-06-16T07:17:27.702Z,1015.37
2018-06-16T07:18:36.615Z,1015.38
2018-06-16T07:19:45.760Z,1015.4
2018-06-16T07:20:54.627Z,1015.38
2018-06-16T07:22:03.764Z,1015.35
2018-06-16T07:23:12.628Z,1015.36
2018-06-16T07:24:21.594Z,1015.29
2018-06-16T07:25:30.456Z,1015.32
2018-06-16T07:26:39.321Z,1015.29
2018-06-16T07:27:48.185Z,1015.35
2018-06-16T07:28:57.051Z,1015.33
2018-06-16T07:30:06.119Z,1015.32
2018-06-16T07:31:15.257Z,1015.36
2018-06-16T07:32:24.400Z,1015.4
2018-06-16T07:33:33.268Z,1015.35
2018-06-16T07:34:42.411Z,1015.39
2018-06-16T07:35:51.559Z,1015.4
2018-06-16T07:37:00.418Z,1015.43
2018-06-16T07:38:09.280Z,1015.42
2018-06-16T07:39:18.142Z,1015.44
2018-06-16T07:40:27.005Z,1015.46
2018-06-16T07:41:36.145Z,1015.45
2018-06-16T07:42:45.013Z,1015.47
2018-06-16T07:43:54.151Z,1015.44
2018-06-16T07:45:03.294Z,1015.47
2018-06-16T07:46:12.711Z,1015.45
2018-06-16T07:47:22.010Z,1015.45
2018-06-16T07:48:30.877Z,1015.44
2018-06-16T07:49:39.742Z,1015.44
2018-06-16T07:50:48.605Z,1015.41
2018-06-16T07:51:57.471Z,1015.37
2018-06-16T07:53:06.767Z,1015.4
2018-06-16T07:54:15.905Z,1015.4
2018-06-16T07:55:25.052Z,1015.4
2018-06-16T07:56:33.952Z,1015.37
2018-06-16T07:57:42.816Z,1015.42
2018-06-16T07:58:51.758Z,1015.42
2018-06-16T08:00:00.625Z,1015.5
2018-06-16T08:01:09.491Z,1015.48
2018-06-16T08:02:18.353Z,1015.49
2018-06-16T08:03:27.219Z,1015.45
2018-06-16T08:04:36.135Z,1015.53
2018-06-16T08:05:45.284Z,1015.47
2018-06-16T08:06:54.151Z,1015.48
2018-06-16T08:08:03.295Z,1015.45
2018-06-16T08:09:12.159Z,1015.45
2018-06-16T08:10:21.349Z,1015.47
2018-06-16T08:11:30.217Z,1015.43
2018-06-16T08:12:39.078Z,1015.43
2018-06-16T08:13:48.300Z,1015.39
2018-06-16T08:14:57.167Z,1015.36
2018-06-16T08:16:06.238Z,1015.41
2018-06-16T08:17:15.123Z,1015.39
2018-06-16T08:18:23.998Z,1015.4
2018-06-16T08:19:32.863Z,1015.42
2018-06-16T08:20:41.746Z,1015.39
2018-06-16T08:21:50.660Z,1015.4
2018-06-16T08:22:59.841Z,1015.35
2018-06-16T08:24:08.735Z,1015.34
2018-06-16T08:25:17.600Z,1015.33
2018-06-16T08:26:26.470Z,1015.37
2018-06-16T08:27:35.482Z,1015.36
2018-06-16T08:28:44.347Z,1015.37
2018-06-16T08:29:53.222Z,1015.35
2018-06-16T08:31:02.084Z,1015.38
2018-06-16T08:32:10.955Z,1015.36
2018-06-16T08:33:19.822Z,1015.41
2018-06-16T08:34:29.007Z,1015.44
2018-06-16T08:35:37.874Z,1015.42
2018-06-16T08:36:47.030Z,1015.39
2018-06-16T08:37:56.450Z,1015.41
2018-06-16T08:39:05.317Z,1015.41
2018-06-16T08:40:14.460Z,1015.41
2018-06-16T08:41:23.326Z,1015.4
2018-06-16T08:42:32.193Z,1015.4
2018-06-16T08:43:41.057Z,1015.45
2018-06-16T08:44:50.041Z,1015.47
2018-06-16T08:45:58.911Z,1015.5
2018-06-16T08:47:07.779Z,1015.47
2018-06-16T08:48:16.644Z,1015.47
2018-06-16T08:49:25.558Z,1015.5
2018-06-16T08:50:35.122Z,1015.46
2018-06-16T08:51:44.266Z,1015.45
2018-06-16T08:52:53.410Z,1015.44
2018-06-16T08:54:02.279Z,1015.43
2018-06-16T08:55:11.160Z,1015.47
2018-06-16T08:56:20.124Z,1015.48
2018-06-16T08:57:28.995Z,1015.5
2018-06-16T08:58:37.857Z,1015.49
2018-06-16T08:59:46.790Z,1015.5
2018-06-16T09:00:56.523Z,1015.48
2018-06-16T09:02:05.444Z,1015.54
2018-06-16T09:03:14.301Z,1015.54
2018-06-16T09:04:23.178Z,1015.48
2018-06-16T09:05:32.041Z,1015.47
2018-06-16T09:06:40.914Z,1015.46
2018-06-16T09:07:49.816Z,1015.4
2018-06-16T09:08:58.964Z,1015.41
2018-06-16T09:10:07.866Z,1015.4
2018-06-16T09:11:17.306Z,1015.42
2018-06-16T09:12:26.504Z,1015.39
2018-06-16T09:13:35.372Z,1015.39
2018-06-16T09:14:44.237Z,1015.42
2018-06-16T09:15:53.381Z,1015.4
2018-06-16T09:17:02.246Z,1015.4
2018-06-16T09:18:11.113Z,1015.39
2018-06-16T09:19:20.127Z,1015.38
2018-06-16T09:20:29.045Z,1015.37
2018-06-16T09:21:37.913Z,1015.38
2018-06-16T09:22:46.782Z,1015.35
2018-06-16T09:23:55.648Z,1015.37
2018-06-16T09:25:04.616Z,1015.35
2018-06-16T09:26:13.761Z,1015.34
2018-06-16T09:27:22.629Z,1015.34
2018-06-16T09:28:31.498Z,1015.4
2018-06-16T09:29:40.643Z,1015.39
2018-06-16T09:30:50.217Z,1015.38
2018-06-16T09:31:59.087Z,1015.38
2018-06-16T09:33:07.953Z,1015.39
2018-06-16T09:34:16.819Z,1015.4
2018-06-16T09:35:26.529Z,1015.41
2018-06-16T09:36:35.548Z,1015.41
2018-06-16T09:37:44.409Z,1015.45
2018-06-16T09:38:53.548Z,1015.41
2018-06-16T09:40:02.970Z,1015.34
2018-06-16T09:41:11.838Z,1015.36
2018-06-16T09:42:21.056Z,1015.38
2018-06-16T09:43:30.219Z,1015.35
2018-06-16T09:44:39.087Z,1015.33
2018-06-16T09:45:48.405Z,1015.33
2018-06-16T09:46:57.669Z,1015.31
2018-06-16T09:48:06.700Z,1015.36
2018-06-16T09:49:16.139Z,1015.36
2018-06-16T09:50:25.007Z,1015.4
2018-06-16T09:51:33.872Z,1015.39
2018-06-16T09:52:42.741Z,1015.38
2018-06-16T09:53:51.608Z,1015.35
2018-06-16T09:55:00.475Z,1015.41
2018-06-16T09:56:09.342Z,1015.38
2018-06-16T09:57:18.210Z,1015.4
2018-06-16T09:58:27.078Z,1015.35
2018-06-16T09:59:35.949Z,1015.38
2018-06-16T10:00:44.816Z,1015.41
2018-06-16T10:01:53.681Z,1015.4
2018-06-16T10:03:02.552Z,1015.41
2018-06-16T10:04:11.418Z,1015.38
2018-06-16T10:05:20.582Z,1015.41
2018-06-16T10:06:29.706Z,1015.39
2018-06-16T10:07:38.854Z,1015.36
2018-06-16T10:08:47.722Z,1015.4
2018-06-16T10:09:56.587Z,1015.4
2018-06-16T10:11:05.452Z,1015.38
2018-06-16T10:12:14.320Z,1015.41
2018-06-16T10:13:23.189Z,1015.42
2018-06-16T10:14:32.057Z,1015.47
2018-06-16T10:15:40.924Z,1015.39
2018-06-16T10:16:49.792Z,1015.41
2018-06-16T10:17:58.660Z,1015.39
2018-06-16T10:19:07.528Z,1015.43
2018-06-16T10:20:16.394Z,1015.37
2018-06-16T10:21:25.263Z,1015.35
2018-06-16T10:22:34.411Z,1015.35
2018-06-16T10:23:43.284Z,1015.34
2018-06-16T10:24:52.146Z,1015.33
2018-06-16T10:26:01.546Z,1015.33
2018-06-16T10:27:10.723Z,1015.34
2018-06-16T10:28:19.585Z,1015.27
2018-06-16T10:29:28.454Z,1015.25
2018-06-16T10:30:37.322Z,1015.29
2018-06-16T10:31:46.468Z,1015.24
2018-06-16T10:32:55.334Z,1015.27
2018-06-16T10:34:04.203Z,1015.23
2018-06-16T10:35:13.070Z,1015.22
2018-06-16T10:36:22.241Z,1015.24
2018-06-16T10:37:31.476Z,1015.21
2018-06-16T10:38:40.344Z,1015.26
2018-06-16T10:39:49.213Z,1015.23
2018-06-16T10:40:58.080Z,1015.21
2018-06-16T10:42:07.399Z,1015.2
2018-06-16T10:43:16.266Z,1015.2
2018-06-16T10:44:25.411Z,1015.15
2018-06-16T10:45:34.281Z,1015.18
2018-06-16T10:46:43.151Z,1015.2
2018-06-16T10:47:52.068Z,1015.18
2018-06-16T10:49:00.935Z,1015.21
2018-06-16T10:50:10.086Z,1015.2
2018-06-16T10:51:18.954Z,1015.18
2018-06-16T10:52:27.824Z,1015.2
2018-06-16T10:53:36.742Z,1015.21
2018-06-16T10:54:45.612Z,1015.24
2018-06-16T10:55:54.479Z,1015.19
2018-06-16T10:57:03.348Z,1015.16
2018-06-16T10:58:12.215Z,1015.17
2018-06-16T10:59:21.233Z,1015.19
2018-06-16T11:00:30.139Z,1015.18
2018-06-16T11:01:38.972Z,1015.2
2018-06-16T11:02:47.838Z,1015.18
2018-06-16T11:03:56.716Z,1015.17
2018-06-16T11:05:05.637Z,1015.18
2018-06-16T11:06:14.797Z,1015.17
2018-06-16T11:07:23.659Z,1015.21
2018-06-16T11:08:32.528Z,1015.23
2018-06-16T11:09:41.392Z,1015.25
2018-06-16T11:10:50.512Z,1015.24
2018-06-16T11:11:59.380Z,1015.23
2018-06-16T11:13:08.533Z,1015.23
2018-06-16T11:14:17.676Z,1015.23
2018-06-16T11:15:26.543Z,1015.24
2018-06-16T11:16:35.559Z,1015.17
2018-06-16T11:17:44.429Z,1015.19
2018-06-16T11:18:53.296Z,1015.17
2018-06-16T11:20:02.166Z,1015.15
2018-06-16T11:21:11.591Z,1015.16
2018-06-16T11:22:20.459Z,1015.16
2018-06-16T11:23:29.327Z,1015.19
2018-06-16T11:24:38.474Z,1015.12
2018-06-16T11:25:47.343Z,1015.07
2018-06-16T11:26:56.212Z,1014.99
2018-06-16T11:28:05.557Z,1015.05
2018-06-16T11:29:14.428Z,1015.06
2018-06-16T11:30:23.340Z,1015
2018-06-16T11:31:32.163Z,1015.03
2018-06-16T11:32:41.303Z,1015
2018-06-16T11:33:50.189Z,1014.94
2018-06-16T11:34:59.333Z,1014.92
2018-06-16T11:36:08.201Z,1014.89
2018-06-16T11:37:17.071Z,1014.88
2018-06-16T11:38:25.943Z,1014.88
2018-06-16T11:39:35.187Z,1014.86
2018-06-16T11:40:44.055Z,1014.82
2018-06-16T11:41:52.927Z,1014.8
2018-06-16T11:43:01.796Z,1014.76
2018-06-16T11:44:10.667Z,1014.73
2018-06-16T11:45:19.537Z,1014.72
2018-06-16T11:46:28.409Z,1014.73
2018-06-16T11:47:37.555Z,1014.77
2018-06-16T11:48:46.497Z,1014.74
2018-06-16T11:49:56.098Z,1014.74
2018-06-16T11:51:05.318Z,1014.77
2018-06-16T11:52:14.187Z,1014.72
2018-06-16T11:53:23.056Z,1014.74
2018-06-16T11:54:31.924Z,1014.74
2018-06-16T11:55:40.798Z,1014.73
2018-06-16T11:56:50.000Z,1014.7
2018-06-16T11:57:58.872Z,1014.66
2018-06-16T11:59:07.737Z,1014.7
2018-06-16T12:00:16.607Z,1014.78
2018-06-16T12:01:25.479Z,1014.74
2018-06-16T12:02:34.599Z,1014.74
2018-06-16T12:03:43.467Z,1014.75
2018-06-16T12:04:52.338Z,1014.67
2018-06-16T12:06:01.208Z,1014.68
2018-06-16T12:07:10.367Z,1014.61
2018-06-16T12:08:20.062Z,1014.65
2018-06-16T12:09:30.131Z,1014.58
2018-06-16T12:10:39.002Z,1014.61
2018-06-16T12:11:47.874Z,1014.57
2018-06-16T12:12:57.016Z,1014.53
2018-06-16T12:14:06.209Z,1014.54
2018-06-16T12:15:15.081Z,1014.58
2018-06-16T12:16:23.948Z,1014.55
2018-06-16T12:17:32.817Z,1014.55
2018-06-16T12:18:41.694Z,1014.54
2018-06-16T12:19:50.611Z,1014.51
2018-06-16T12:20:59.800Z,1014.49
2018-06-16T12:22:08.670Z,1014.51
2018-06-16T12:23:17.539Z,1014.55
2018-06-16T12:24:26.409Z,1014.53
2018-06-16T12:25:35.652Z,1014.52
2018-06-16T12:26:44.523Z,1014.5
2018-06-16T12:27:53.399Z,1014.55
2018-06-16T12:29:02.275Z,1014.5
2018-06-16T12:30:11.147Z,1014.55
2018-06-16T12:31:20.367Z,1014.44
2018-06-16T12:32:29.514Z,1014.42
2018-06-16T12:33:38.384Z,1014.45
2018-06-16T12:34:47.263Z,1014.44
2018-06-16T12:35:56.136Z,1014.5
2018-06-16T12:37:05.388Z,1014.49
2018-06-16T12:38:14.255Z,1014.46
2018-06-16T12:39:23.128Z,1014.47
2018-06-16T12:40:31.994Z,1014.54
2018-06-16T12:41:40.866Z,1014.52
2018-06-16T12:42:49.837Z,1014.55
2018-06-16T12:43:58.709Z,1014.56
2018-06-16T12:45:07.579Z,1014.58
2018-06-16T12:46:16.729Z,1014.51
2018-06-16T12:47:25.602Z,1014.47
2018-06-16T12:48:34.521Z,1014.5
2018-06-16T12:49:43.391Z,1014.46
2018-06-16T12:50:52.268Z,1014.42
2018-06-16T12:52:01.171Z,1014.35
2018-06-16T12:53:10.081Z,1014.3
2018-06-16T12:54:19.854Z,1014.31
2018-06-16T12:55:28.726Z,1014.32
2018-06-16T12:56:37.653Z,1014.27
2018-06-16T12:57:46.963Z,1014.28
2018-06-16T12:58:56.514Z,1014.32
2018-06-16T13:00:05.859Z,1014.29
2018-06-16T13:01:15.008Z,1014.3
2018-06-16T13:02:23.878Z,1014.34
2018-06-16T13:03:32.747Z,1014.33
2018-06-16T13:04:41.618Z,1014.33
2018-06-16T13:05:50.489Z,1014.35
2018-06-16T13:06:59.635Z,1014.33
2018-06-16T13:08:08.506Z,1014.25
2018-06-16T13:09:17.522Z,1014.33
2018-06-16T13:10:27.059Z,1014.31
2018-06-16T13:11:35.989Z,1014.36
2018-06-16T13:12:44.863Z,1014.32
2018-06-16T13:13:53.735Z,1014.34
2018-06-16T13:15:02.887Z,1014.32
2018-06-16T13:16:12.034Z,1014.35
2018-06-16T13:17:21.185Z,1014.35
2018-06-16T13:18:30.618Z,1014.36
2018-06-16T13:19:39.492Z,1014.33
2018-06-16T13:20:48.363Z,1014.32
2018-06-16T13:21:57.235Z,1014.36
2018-06-16T13:23:06.584Z,1014.44
2018-06-16T13:24:15.460Z,1014.38
2018-06-16T13:25:24.343Z,1014.3
2018-06-16T13:26:33.216Z,1014.28
2018-06-16T13:27:42.748Z,1014.32
2018-06-16T13:28:51.985Z,1014.35
2018-06-16T13:30:00.931Z,1014.38
2018-06-16T13:31:10.048Z,1014.31
2018-06-16T13:32:19.475Z,1014.4
2018-06-16T13:33:28.351Z,1014.41
2018-06-16T13:34:37.314Z,1014.43
2018-06-16T13:35:46.190Z,1014.33
2018-06-16T13:36:55.061Z,1014.33
2018-06-16T13:38:03.933Z,1014.35
2018-06-16T13:39:12.831Z,1014.34
2018-06-16T13:40:22.035Z,1014.27
2018-06-16T13:41:30.906Z,1014.28
2018-06-16T13:42:39.780Z,1014.15
2018-06-16T13:43:48.941Z,1014.24
2018-06-16T13:44:58.091Z,1014.24
2018-06-16T13:46:07.312Z,1014.4
2018-06-16T13:47:16.185Z,1014.37
2018-06-16T13:48:25.340Z,1014.37
2018-06-16T13:49:34.498Z,1014.42
2018-06-16T13:50:43.927Z,1014.41
2018-06-16T13:51:53.330Z,1014.31
2018-06-16T13:53:02.209Z,1014.23
2018-06-16T13:54:11.076Z,1014.49
2018-06-16T13:55:19.952Z,1014.47
2018-06-16T13:56:28.830Z,1014.48
2018-06-16T13:57:38.126Z,1014.57